sensor_id;sensor_type;location;lat;lon;timestamp;P1;durP1;ratioP1;P2;durP2;ratioP2
2930;SDS011;1475;51.454;7.150;2022-08-01T00:01:46;19.23;;;17.23;;
2930;SDS011;1475;51.454;7.150;2022-08-01T00:04:19;19.02;;;17.20;;
2930;SDS011;1475;51.454;7.150;2022-08-01T00:06:46;20.83;;;18.60;;
2930;SDS011;1475;51.454;7.150;2022-08-01T00:09:13;20.05;;;17.95;;
2930;SDS011;1475;51.454;7.150;2022-08-01T00:11:42;18.35;;;16.45;;
2930;SDS011;1475;51.454;7.150;2022-08-01T00:14:10;18.80;;;16.80;;
2930;SDS011;1475;51.454;7.150;2022-08-01T00:16:36;20.97;;;18.77;;
2930;SDS011;1475;51.454;7.150;2022-08-01T00:19:19;22.93;;;20.40;;
2930;SDS011;1475;51.454;7.150;2022-08-01T00:21:49;23.00;;;18.98;;
2930;SDS011;1475;51.454;7.150;2022-08-01T00:24:30;23.13;;;20.25;;
2930;SDS011;1475;51.454;7.150;2022-08-01T00:27:03;24.48;;;21.88;;
2930;SDS011;1475;51.454;7.150;2022-08-01T00:29:29;25.00;;;22.40;;
2930;SDS011;1475;51.454;7.150;2022-08-01T00:31:59;23.20;;;20.77;;
2930;SDS011;1475;51.454;7.150;2022-08-01T00:34:26;27.77;;;24.60;;
2930;SDS011;1475;51.454;7.150;2022-08-01T00:36:53;30.30;;;25.90;;
2930;SDS011;1475;51.454;7.150;2022-08-01T00:39:21;28.17;;;25.17;;
2930;SDS011;1475;51.454;7.150;2022-08-01T00:42:05;32.15;;;26.65;;
2930;SDS011;1475;51.454;7.150;2022-08-01T00:44:32;32.50;;;25.02;;
2930;SDS011;1475;51.454;7.150;2022-08-01T00:47:00;32.58;;;27.42;;
2930;SDS011;1475;51.454;7.150;2022-08-01T00:49:29;36.20;;;29.65;;
2930;SDS011;1475;51.454;7.150;2022-08-01T00:51:56;35.45;;;27.88;;
2930;SDS011;1475;51.454;7.150;2022-08-01T00:54:26;35.60;;;29.30;;
2930;SDS011;1475;51.454;7.150;2022-08-01T00:56:53;33.80;;;28.38;;
2930;SDS011;1475;51.454;7.150;2022-08-01T00:59:25;34.13;;;28.65;;
2930;SDS011;1475;51.454;7.150;2022-08-01T01:01:57;34.08;;;28.77;;
2930;SDS011;1475;51.454;7.150;2022-08-01T01:04:27;35.13;;;28.23;;
2930;SDS011;1475;51.454;7.150;2022-08-01T01:06:59;32.38;;;28.95;;
2930;SDS011;1475;51.454;7.150;2022-08-01T01:09:34;33.72;;;29.42;;
2930;SDS011;1475;51.454;7.150;2022-08-01T01:12:10;32.80;;;29.17;;
2930;SDS011;1475;51.454;7.150;2022-08-01T01:14:53;33.15;;;28.05;;
2930;SDS011;1475;51.454;7.150;2022-08-01T01:17:27;32.50;;;26.07;;
2930;SDS011;1475;51.454;7.150;2022-08-01T01:20:01;36.03;;;30.05;;
2930;SDS011;1475;51.454;7.150;2022-08-01T01:22:36;35.22;;;28.98;;
2930;SDS011;1475;51.454;7.150;2022-08-01T01:25:19;33.40;;;27.27;;
2930;SDS011;1475;51.454;7.150;2022-08-01T01:28:10;31.70;;;28.20;;
2930;SDS011;1475;51.454;7.150;2022-08-01T01:30:44;30.33;;;26.80;;
2930;SDS011;1475;51.454;7.150;2022-08-01T01:33:17;32.00;;;27.40;;
2930;SDS011;1475;51.454;7.150;2022-08-01T01:35:49;33.10;;;27.58;;
2930;SDS011;1475;51.454;7.150;2022-08-01T01:38:21;34.60;;;27.27;;
2930;SDS011;1475;51.454;7.150;2022-08-01T01:40:51;31.48;;;26.65;;
2930;SDS011;1475;51.454;7.150;2022-08-01T01:43:20;31.05;;;26.23;;
2930;SDS011;1475;51.454;7.150;2022-08-01T01:45:50;33.67;;;27.25;;
2930;SDS011;1475;51.454;7.150;2022-08-01T01:48:20;33.50;;;27.25;;
2930;SDS011;1475;51.454;7.150;2022-08-01T01:50:50;32.05;;;27.60;;
2930;SDS011;1475;51.454;7.150;2022-08-01T01:53:18;35.80;;;28.58;;
2930;SDS011;1475;51.454;7.150;2022-08-01T01:55:48;32.30;;;28.27;;
2930;SDS011;1475;51.454;7.150;2022-08-01T01:58:20;30.50;;;27.20;;
2930;SDS011;1475;51.454;7.150;2022-08-01T02:00:50;39.33;;;30.70;;
2930;SDS011;1475;51.454;7.150;2022-08-01T02:03:19;32.97;;;27.92;;
2930;SDS011;1475;51.454;7.150;2022-08-01T02:05:48;29.52;;;26.33;;
2930;SDS011;1475;51.454;7.150;2022-08-01T02:08:17;31.83;;;26.58;;
2930;SDS011;1475;51.454;7.150;2022-08-01T02:10:46;34.92;;;28.75;;
2930;SDS011;1475;51.454;7.150;2022-08-01T02:13:28;37.53;;;28.77;;
2930;SDS011;1475;51.454;7.150;2022-08-01T02:15:57;36.47;;;28.70;;
2930;SDS011;1475;51.454;7.150;2022-08-01T02:18:24;33.80;;;27.48;;
2930;SDS011;1475;51.454;7.150;2022-08-01T02:20:52;35.08;;;27.15;;
2930;SDS011;1475;51.454;7.150;2022-08-01T02:23:20;34.38;;;28.38;;
2930;SDS011;1475;51.454;7.150;2022-08-01T02:25:52;34.17;;;27.58;;
2930;SDS011;1475;51.454;7.150;2022-08-01T02:28:22;34.83;;;26.40;;
2930;SDS011;1475;51.454;7.150;2022-08-01T02:30:54;35.00;;;29.23;;
2930;SDS011;1475;51.454;7.150;2022-08-01T02:33:27;37.67;;;29.30;;
2930;SDS011;1475;51.454;7.150;2022-08-01T02:35:59;37.67;;;29.73;;
2930;SDS011;1475;51.454;7.150;2022-08-01T02:38:31;36.75;;;30.00;;
2930;SDS011;1475;51.454;7.150;2022-08-01T02:41:02;36.00;;;29.35;;
2930;SDS011;1475;51.454;7.150;2022-08-01T02:43:33;38.05;;;31.80;;
2930;SDS011;1475;51.454;7.150;2022-08-01T02:46:03;38.80;;;31.00;;
2930;SDS011;1475;51.454;7.150;2022-08-01T02:48:33;36.83;;;30.20;;
2930;SDS011;1475;51.454;7.150;2022-08-01T02:51:02;35.55;;;29.50;;
2930;SDS011;1475;51.454;7.150;2022-08-01T02:53:32;32.47;;;27.42;;
2930;SDS011;1475;51.454;7.150;2022-08-01T02:56:03;35.38;;;28.10;;
2930;SDS011;1475;51.454;7.150;2022-08-01T02:58:32;30.73;;;27.40;;
2930;SDS011;1475;51.454;7.150;2022-08-01T03:04:26;36.30;;;29.15;;
2930;SDS011;1475;51.454;7.150;2022-08-01T03:06:54;38.70;;;28.55;;
2930;SDS011;1475;51.454;7.150;2022-08-01T03:09:23;35.20;;;27.70;;
2930;SDS011;1475;51.454;7.150;2022-08-01T03:11:51;34.10;;;27.48;;
2930;SDS011;1475;51.454;7.150;2022-08-01T03:14:22;39.15;;;28.73;;
2930;SDS011;1475;51.454;7.150;2022-08-01T03:16:51;36.78;;;29.98;;
2930;SDS011;1475;51.454;7.150;2022-08-01T03:19:19;38.40;;;30.15;;
2930;SDS011;1475;51.454;7.150;2022-08-01T03:21:54;35.03;;;28.70;;
2930;SDS011;1475;51.454;7.150;2022-08-01T03:24:23;43.80;;;30.23;;
2930;SDS011;1475;51.454;7.150;2022-08-01T03:26:53;41.53;;;32.35;;
2930;SDS011;1475;51.454;7.150;2022-08-01T03:29:24;44.20;;;34.05;;
2930;SDS011;1475;51.454;7.150;2022-08-01T03:31:54;41.25;;;34.80;;
2930;SDS011;1475;51.454;7.150;2022-08-01T03:34:24;46.70;;;35.10;;
2930;SDS011;1475;51.454;7.150;2022-08-01T03:36:59;42.55;;;34.60;;
2930;SDS011;1475;51.454;7.150;2022-08-01T03:39:33;40.15;;;33.92;;
2930;SDS011;1475;51.454;7.150;2022-08-01T03:42:07;41.15;;;31.10;;
2930;SDS011;1475;51.454;7.150;2022-08-01T03:44:38;43.35;;;33.97;;
2930;SDS011;1475;51.454;7.150;2022-08-01T03:47:08;39.67;;;31.95;;
2930;SDS011;1475;51.454;7.150;2022-08-01T03:49:38;41.40;;;34.15;;
2930;SDS011;1475;51.454;7.150;2022-08-01T03:58:27;37.85;;;27.52;;
2930;SDS011;1475;51.454;7.150;2022-08-01T04:01:06;33.03;;;28.70;;
2930;SDS011;1475;51.454;7.150;2022-08-01T04:03:36;39.03;;;29.45;;
2930;SDS011;1475;51.454;7.150;2022-08-01T04:06:24;29.48;;;24.55;;
2930;SDS011;1475;51.454;7.150;2022-08-01T04:09:07;28.30;;;24.75;;
2930;SDS011;1475;51.454;7.150;2022-08-01T04:14:58;29.10;;;21.70;;
2930;SDS011;1475;51.454;7.150;2022-08-01T04:17:39;24.60;;;21.30;;
2930;SDS011;1475;51.454;7.150;2022-08-01T04:20:08;26.92;;;21.90;;
2930;SDS011;1475;51.454;7.150;2022-08-01T04:22:41;25.07;;;20.40;;
2930;SDS011;1475;51.454;7.150;2022-08-01T04:25:11;24.80;;;20.10;;
2930;SDS011;1475;51.454;7.150;2022-08-01T04:40:38;30.38;;;22.75;;
2930;SDS011;1475;51.454;7.150;2022-08-01T04:43:25;26.48;;;21.60;;
2930;SDS011;1475;51.454;7.150;2022-08-01T04:46:08;27.95;;;22.50;;
2930;SDS011;1475;51.454;7.150;2022-08-01T04:48:51;28.08;;;22.45;;
2930;SDS011;1475;51.454;7.150;2022-08-01T04:51:49;28.55;;;22.08;;
2930;SDS011;1475;51.454;7.150;2022-08-01T04:54:37;25.15;;;22.45;;
2930;SDS011;1475;51.454;7.150;2022-08-01T05:00:15;22.60;;;19.60;;
2930;SDS011;1475;51.454;7.150;2022-08-01T05:02:42;26.00;;;20.88;;
2930;SDS011;1475;51.454;7.150;2022-08-01T05:05:09;21.80;;;17.48;;
2930;SDS011;1475;51.454;7.150;2022-08-01T05:07:36;23.48;;;19.17;;
2930;SDS011;1475;51.454;7.150;2022-08-01T05:10:03;23.92;;;18.42;;
2930;SDS011;1475;51.454;7.150;2022-08-01T05:12:31;20.67;;;17.35;;
2930;SDS011;1475;51.454;7.150;2022-08-01T05:14:59;19.52;;;15.98;;
2930;SDS011;1475;51.454;7.150;2022-08-01T05:17:26;17.88;;;15.18;;
2930;SDS011;1475;51.454;7.150;2022-08-01T05:19:53;18.13;;;15.13;;
2930;SDS011;1475;51.454;7.150;2022-08-01T05:22:20;17.48;;;15.00;;
2930;SDS011;1475;51.454;7.150;2022-08-01T05:24:47;19.60;;;14.57;;
2930;SDS011;1475;51.454;7.150;2022-08-01T05:27:14;17.15;;;14.38;;
2930;SDS011;1475;51.454;7.150;2022-08-01T05:29:41;22.05;;;18.42;;
2930;SDS011;1475;51.454;7.150;2022-08-01T05:32:09;18.40;;;15.80;;
2930;SDS011;1475;51.454;7.150;2022-08-01T05:34:36;20.55;;;16.50;;
2930;SDS011;1475;51.454;7.150;2022-08-01T05:37:03;20.15;;;17.38;;
2930;SDS011;1475;51.454;7.150;2022-08-01T05:39:30;21.92;;;17.50;;
2930;SDS011;1475;51.454;7.150;2022-08-01T05:41:57;18.95;;;15.90;;
2930;SDS011;1475;51.454;7.150;2022-08-01T05:44:24;19.60;;;16.83;;
2930;SDS011;1475;51.454;7.150;2022-08-01T05:46:51;19.15;;;15.60;;
2930;SDS011;1475;51.454;7.150;2022-08-01T05:49:19;18.30;;;16.27;;
2930;SDS011;1475;51.454;7.150;2022-08-01T05:51:46;20.40;;;18.30;;
2930;SDS011;1475;51.454;7.150;2022-08-01T05:54:13;18.83;;;16.60;;
2930;SDS011;1475;51.454;7.150;2022-08-01T05:56:39;24.02;;;17.42;;
2930;SDS011;1475;51.454;7.150;2022-08-01T05:59:06;20.27;;;16.35;;
2930;SDS011;1475;51.454;7.150;2022-08-01T06:01:33;21.45;;;18.20;;
2930;SDS011;1475;51.454;7.150;2022-08-01T06:04:00;22.20;;;18.13;;
2930;SDS011;1475;51.454;7.150;2022-08-01T06:06:28;21.52;;;17.23;;
2930;SDS011;1475;51.454;7.150;2022-08-01T06:08:55;19.52;;;15.77;;
2930;SDS011;1475;51.454;7.150;2022-08-01T06:11:22;20.45;;;18.33;;
2930;SDS011;1475;51.454;7.150;2022-08-01T06:13:49;20.45;;;17.10;;
2930;SDS011;1475;51.454;7.150;2022-08-01T06:16:15;19.95;;;17.10;;
2930;SDS011;1475;51.454;7.150;2022-08-01T06:18:42;19.95;;;16.80;;
2930;SDS011;1475;51.454;7.150;2022-08-01T06:21:09;19.33;;;16.90;;
2930;SDS011;1475;51.454;7.150;2022-08-01T06:23:37;19.55;;;16.48;;
2930;SDS011;1475;51.454;7.150;2022-08-01T06:26:06;19.40;;;16.37;;
2930;SDS011;1475;51.454;7.150;2022-08-01T06:28:33;17.08;;;14.65;;
2930;SDS011;1475;51.454;7.150;2022-08-01T06:31:00;18.42;;;15.50;;
2930;SDS011;1475;51.454;7.150;2022-08-01T06:33:27;18.52;;;16.20;;
2930;SDS011;1475;51.454;7.150;2022-08-01T06:35:54;16.25;;;14.55;;
2930;SDS011;1475;51.454;7.150;2022-08-01T06:38:21;14.95;;;13.45;;
2930;SDS011;1475;51.454;7.150;2022-08-01T06:40:50;16.27;;;14.57;;
2930;SDS011;1475;51.454;7.150;2022-08-01T06:43:17;16.70;;;14.90;;
2930;SDS011;1475;51.454;7.150;2022-08-01T06:45:44;15.93;;;13.57;;
2930;SDS011;1475;51.454;7.150;2022-08-01T06:48:11;15.50;;;13.82;;
2930;SDS011;1475;51.454;7.150;2022-08-01T06:50:38;12.50;;;10.00;;
2930;SDS011;1475;51.454;7.150;2022-08-01T06:53:05;12.27;;;10.00;;
2930;SDS011;1475;51.454;7.150;2022-08-01T06:55:31;10.75;;;9.32;;
2930;SDS011;1475;51.454;7.150;2022-08-01T06:58:00;10.73;;;9.63;;
2930;SDS011;1475;51.454;7.150;2022-08-01T07:00:26;11.95;;;9.65;;
2930;SDS011;1475;51.454;7.150;2022-08-01T07:02:55;11.88;;;9.77;;
2930;SDS011;1475;51.454;7.150;2022-08-01T07:05:23;11.30;;;9.45;;
2930;SDS011;1475;51.454;7.150;2022-08-01T07:07:50;12.13;;;9.90;;
2930;SDS011;1475;51.454;7.150;2022-08-01T07:10:17;9.70;;;8.55;;
2930;SDS011;1475;51.454;7.150;2022-08-01T07:12:45;10.03;;;7.90;;
2930;SDS011;1475;51.454;7.150;2022-08-01T07:15:13;9.90;;;7.78;;
2930;SDS011;1475;51.454;7.150;2022-08-01T07:17:41;7.97;;;6.47;;
2930;SDS011;1475;51.454;7.150;2022-08-01T07:20:08;6.85;;;5.32;;
2930;SDS011;1475;51.454;7.150;2022-08-01T07:22:37;5.87;;;4.60;;
2930;SDS011;1475;51.454;7.150;2022-08-01T07:25:04;9.20;;;5.10;;
2930;SDS011;1475;51.454;7.150;2022-08-01T07:27:32;5.18;;;4.57;;
2930;SDS011;1475;51.454;7.150;2022-08-01T07:29:59;5.88;;;4.22;;
2930;SDS011;1475;51.454;7.150;2022-08-01T07:32:27;6.00;;;4.53;;
2930;SDS011;1475;51.454;7.150;2022-08-01T07:34:55;4.82;;;3.90;;
2930;SDS011;1475;51.454;7.150;2022-08-01T07:37:23;5.20;;;4.00;;
2930;SDS011;1475;51.454;7.150;2022-08-01T07:39:49;6.07;;;4.75;;
2930;SDS011;1475;51.454;7.150;2022-08-01T07:42:16;7.07;;;5.20;;
2930;SDS011;1475;51.454;7.150;2022-08-01T07:44:43;6.10;;;4.53;;
2930;SDS011;1475;51.454;7.150;2022-08-01T07:47:10;5.05;;;4.00;;
2930;SDS011;1475;51.454;7.150;2022-08-01T07:49:38;5.07;;;4.03;;
2930;SDS011;1475;51.454;7.150;2022-08-01T07:52:05;6.60;;;4.60;;
2930;SDS011;1475;51.454;7.150;2022-08-01T07:54:32;5.68;;;4.72;;
2930;SDS011;1475;51.454;7.150;2022-08-01T07:56:59;7.20;;;6.50;;
2930;SDS011;1475;51.454;7.150;2022-08-01T07:59:26;8.55;;;7.65;;
2930;SDS011;1475;51.454;7.150;2022-08-01T08:01:53;10.32;;;6.88;;
2930;SDS011;1475;51.454;7.150;2022-08-01T08:04:19;7.37;;;6.60;;
2930;SDS011;1475;51.454;7.150;2022-08-01T08:06:48;6.70;;;5.20;;
2930;SDS011;1475;51.454;7.150;2022-08-01T08:09:15;7.70;;;6.18;;
2930;SDS011;1475;51.454;7.150;2022-08-01T08:11:42;6.57;;;5.22;;
2930;SDS011;1475;51.454;7.150;2022-08-01T08:14:09;5.93;;;4.72;;
2930;SDS011;1475;51.454;7.150;2022-08-01T08:16:36;6.60;;;4.63;;
2930;SDS011;1475;51.454;7.150;2022-08-01T08:19:03;4.47;;;3.30;;
2930;SDS011;1475;51.454;7.150;2022-08-01T08:21:30;4.90;;;3.50;;
2930;SDS011;1475;51.454;7.150;2022-08-01T08:23:58;4.10;;;2.70;;
2930;SDS011;1475;51.454;7.150;2022-08-01T08:26:42;3.85;;;3.33;;
2930;SDS011;1475;51.454;7.150;2022-08-01T08:29:09;5.70;;;3.20;;
2930;SDS011;1475;51.454;7.150;2022-08-01T08:31:36;4.57;;;2.22;;
2930;SDS011;1475;51.454;7.150;2022-08-01T08:34:03;3.50;;;2.10;;
2930;SDS011;1475;51.454;7.150;2022-08-01T08:36:30;6.72;;;3.10;;
2930;SDS011;1475;51.454;7.150;2022-08-01T08:38:57;3.70;;;3.20;;
2930;SDS011;1475;51.454;7.150;2022-08-01T08:41:26;3.97;;;3.38;;
2930;SDS011;1475;51.454;7.150;2022-08-01T08:43:56;5.15;;;3.80;;
2930;SDS011;1475;51.454;7.150;2022-08-01T08:46:25;4.70;;;3.50;;
2930;SDS011;1475;51.454;7.150;2022-08-01T08:48:53;4.43;;;3.25;;
2930;SDS011;1475;51.454;7.150;2022-08-01T08:51:22;4.95;;;3.92;;
2930;SDS011;1475;51.454;7.150;2022-08-01T08:53:51;5.25;;;3.50;;
2930;SDS011;1475;51.454;7.150;2022-08-01T08:56:23;5.68;;;3.00;;
2930;SDS011;1475;51.454;7.150;2022-08-01T08:58:51;4.40;;;3.67;;
2930;SDS011;1475;51.454;7.150;2022-08-01T09:01:18;5.20;;;3.20;;
2930;SDS011;1475;51.454;7.150;2022-08-01T09:03:45;3.75;;;2.72;;
2930;SDS011;1475;51.454;7.150;2022-08-01T09:06:11;5.70;;;3.90;;
2930;SDS011;1475;51.454;7.150;2022-08-01T09:08:39;4.95;;;2.95;;
2930;SDS011;1475;51.454;7.150;2022-08-01T09:11:06;4.65;;;3.13;;
2930;SDS011;1475;51.454;7.150;2022-08-01T09:13:34;4.43;;;3.78;;
2930;SDS011;1475;51.454;7.150;2022-08-01T09:16:01;4.88;;;3.47;;
2930;SDS011;1475;51.454;7.150;2022-08-01T09:18:32;3.10;;;2.00;;
2930;SDS011;1475;51.454;7.150;2022-08-01T09:21:10;6.75;;;2.78;;
2930;SDS011;1475;51.454;7.150;2022-08-01T09:23:39;5.20;;;3.35;;
2930;SDS011;1475;51.454;7.150;2022-08-01T09:26:11;3.50;;;2.95;;
2930;SDS011;1475;51.454;7.150;2022-08-01T09:28:40;5.50;;;3.80;;
2930;SDS011;1475;51.454;7.150;2022-08-01T09:31:08;4.70;;;3.53;;
2930;SDS011;1475;51.454;7.150;2022-08-01T09:33:48;4.05;;;3.38;;
2930;SDS011;1475;51.454;7.150;2022-08-01T09:36:17;4.50;;;2.65;;
2930;SDS011;1475;51.454;7.150;2022-08-01T09:38:44;3.58;;;2.33;;
2930;SDS011;1475;51.454;7.150;2022-08-01T09:41:11;4.60;;;2.20;;
2930;SDS011;1475;51.454;7.150;2022-08-01T09:43:40;2.55;;;1.75;;
2930;SDS011;1475;51.454;7.150;2022-08-01T09:46:15;3.55;;;2.22;;
2930;SDS011;1475;51.454;7.150;2022-08-01T09:48:54;3.50;;;1.90;;
2930;SDS011;1475;51.454;7.150;2022-08-01T09:51:30;3.30;;;1.90;;
2930;SDS011;1475;51.454;7.150;2022-08-01T09:53:58;3.60;;;2.00;;
2930;SDS011;1475;51.454;7.150;2022-08-01T09:56:25;2.60;;;1.60;;
2930;SDS011;1475;51.454;7.150;2022-08-01T09:59:03;3.90;;;2.00;;
2930;SDS011;1475;51.454;7.150;2022-08-01T10:01:41;3.78;;;2.05;;
2930;SDS011;1475;51.454;7.150;2022-08-01T10:04:09;2.97;;;1.83;;
2930;SDS011;1475;51.454;7.150;2022-08-01T10:06:38;4.40;;;2.47;;
2930;SDS011;1475;51.454;7.150;2022-08-01T10:09:07;3.30;;;2.20;;
2930;SDS011;1475;51.454;7.150;2022-08-01T10:11:35;2.85;;;1.80;;
2930;SDS011;1475;51.454;7.150;2022-08-01T10:14:05;3.10;;;2.08;;
2930;SDS011;1475;51.454;7.150;2022-08-01T10:16:33;3.40;;;1.90;;
2930;SDS011;1475;51.454;7.150;2022-08-01T10:19:02;2.95;;;1.98;;
2930;SDS011;1475;51.454;7.150;2022-08-01T10:21:32;3.30;;;1.70;;
2930;SDS011;1475;51.454;7.150;2022-08-01T10:24:00;2.80;;;1.80;;
2930;SDS011;1475;51.454;7.150;2022-08-01T10:26:28;3.22;;;2.10;;
2930;SDS011;1475;51.454;7.150;2022-08-01T10:28:58;3.90;;;2.30;;
2930;SDS011;1475;51.454;7.150;2022-08-01T10:31:26;6.80;;;2.40;;
2930;SDS011;1475;51.454;7.150;2022-08-01T10:33:57;3.50;;;2.60;;
2930;SDS011;1475;51.454;7.150;2022-08-01T10:36:25;3.03;;;2.10;;
2930;SDS011;1475;51.454;7.150;2022-08-01T10:41:21;3.70;;;2.50;;
2930;SDS011;1475;51.454;7.150;2022-08-01T10:43:50;5.20;;;2.33;;
2930;SDS011;1475;51.454;7.150;2022-08-01T10:46:18;3.80;;;2.10;;
2930;SDS011;1475;51.454;7.150;2022-08-01T10:48:49;3.50;;;1.90;;
2930;SDS011;1475;51.454;7.150;2022-08-01T10:51:20;3.53;;;1.50;;
2930;SDS011;1475;51.454;7.150;2022-08-01T10:53:48;2.63;;;1.70;;
2930;SDS011;1475;51.454;7.150;2022-08-01T10:56:17;3.08;;;1.60;;
2930;SDS011;1475;51.454;7.150;2022-08-01T10:58:46;3.85;;;1.40;;
2930;SDS011;1475;51.454;7.150;2022-08-01T11:01:17;2.30;;;1.40;;
2930;SDS011;1475;51.454;7.150;2022-08-01T11:03:57;2.50;;;1.40;;
2930;SDS011;1475;51.454;7.150;2022-08-01T11:06:35;3.10;;;1.15;;
2930;SDS011;1475;51.454;7.150;2022-08-01T11:09:15;2.72;;;1.42;;
2930;SDS011;1475;51.454;7.150;2022-08-01T11:11:56;2.00;;;1.10;;
2930;SDS011;1475;51.454;7.150;2022-08-01T11:14:29;2.30;;;1.50;;
2930;SDS011;1475;51.454;7.150;2022-08-01T11:16:56;3.50;;;1.23;;
2930;SDS011;1475;51.454;7.150;2022-08-01T11:20:08;3.15;;;1.67;;
2930;SDS011;1475;51.454;7.150;2022-08-01T11:26:07;3.40;;;1.42;;
2930;SDS011;1475;51.454;7.150;2022-08-01T11:28:36;2.30;;;1.27;;
2930;SDS011;1475;51.454;7.150;2022-08-01T11:33:59;1.85;;;0.90;;
2930;SDS011;1475;51.454;7.150;2022-08-01T11:36:27;3.50;;;0.90;;
2930;SDS011;1475;51.454;7.150;2022-08-01T11:41:40;2.00;;;1.20;;
2930;SDS011;1475;51.454;7.150;2022-08-01T11:44:09;1.70;;;0.80;;
2930;SDS011;1475;51.454;7.150;2022-08-01T11:46:51;1.88;;;0.90;;
2930;SDS011;1475;51.454;7.150;2022-08-01T11:49:29;1.80;;;0.90;;
2930;SDS011;1475;51.454;7.150;2022-08-01T11:52:24;2.30;;;0.93;;
2930;SDS011;1475;51.454;7.150;2022-08-01T11:54:53;2.55;;;1.00;;
2930;SDS011;1475;51.454;7.150;2022-08-01T11:57:22;2.30;;;1.00;;
2930;SDS011;1475;51.454;7.150;2022-08-01T11:59:50;3.10;;;1.00;;
2930;SDS011;1475;51.454;7.150;2022-08-01T12:02:21;3.30;;;0.90;;
2930;SDS011;1475;51.454;7.150;2022-08-01T12:04:56;1.80;;;0.80;;
2930;SDS011;1475;51.454;7.150;2022-08-01T12:07:25;1.98;;;0.88;;
2930;SDS011;1475;51.454;7.150;2022-08-01T12:09:56;1.90;;;0.80;;
2930;SDS011;1475;51.454;7.150;2022-08-01T12:12:27;2.67;;;0.90;;
2930;SDS011;1475;51.454;7.150;2022-08-01T12:14:56;2.85;;;1.30;;
2930;SDS011;1475;51.454;7.150;2022-08-01T12:17:27;2.10;;;0.93;;
2930;SDS011;1475;51.454;7.150;2022-08-01T12:19:57;2.15;;;0.90;;
2930;SDS011;1475;51.454;7.150;2022-08-01T12:22:24;2.03;;;0.90;;
2930;SDS011;1475;51.454;7.150;2022-08-01T12:24:51;2.90;;;1.53;;
2930;SDS011;1475;51.454;7.150;2022-08-01T12:27:25;2.10;;;1.00;;
2930;SDS011;1475;51.454;7.150;2022-08-01T12:29:54;2.30;;;1.20;;
2930;SDS011;1475;51.454;7.150;2022-08-01T12:32:22;2.53;;;1.00;;
2930;SDS011;1475;51.454;7.150;2022-08-01T12:34:51;2.63;;;1.10;;
2930;SDS011;1475;51.454;7.150;2022-08-01T12:37:21;2.85;;;1.20;;
2930;SDS011;1475;51.454;7.150;2022-08-01T12:39:48;2.00;;;1.10;;
2930;SDS011;1475;51.454;7.150;2022-08-01T12:42:15;2.57;;;1.40;;
2930;SDS011;1475;51.454;7.150;2022-08-01T12:44:42;4.10;;;1.30;;
2930;SDS011;1475;51.454;7.150;2022-08-01T12:47:11;2.80;;;1.17;;
2930;SDS011;1475;51.454;7.150;2022-08-01T12:49:40;4.85;;;1.10;;
2930;SDS011;1475;51.454;7.150;2022-08-01T12:52:09;3.40;;;1.60;;
2930;SDS011;1475;51.454;7.150;2022-08-01T12:57:28;2.10;;;0.93;;
2930;SDS011;1475;51.454;7.150;2022-08-01T13:00:04;2.40;;;1.10;;
2930;SDS011;1475;51.454;7.150;2022-08-01T13:02:36;2.90;;;0.90;;
2930;SDS011;1475;51.454;7.150;2022-08-01T13:05:04;1.92;;;1.00;;
2930;SDS011;1475;51.454;7.150;2022-08-01T13:07:35;2.42;;;1.05;;
2930;SDS011;1475;51.454;7.150;2022-08-01T13:10:11;2.30;;;1.10;;
2930;SDS011;1475;51.454;7.150;2022-08-01T13:12:38;2.10;;;1.10;;
2930;SDS011;1475;51.454;7.150;2022-08-01T13:15:19;2.00;;;1.00;;
2930;SDS011;1475;51.454;7.150;2022-08-01T13:17:51;2.33;;;1.10;;
2930;SDS011;1475;51.454;7.150;2022-08-01T13:23:10;2.17;;;1.20;;
2930;SDS011;1475;51.454;7.150;2022-08-01T13:25:50;3.10;;;1.20;;
2930;SDS011;1475;51.454;7.150;2022-08-01T13:28:20;2.28;;;1.00;;
2930;SDS011;1475;51.454;7.150;2022-08-01T13:30:52;2.45;;;1.20;;
2930;SDS011;1475;51.454;7.150;2022-08-01T13:33:24;2.50;;;1.20;;
2930;SDS011;1475;51.454;7.150;2022-08-01T13:35:52;2.28;;;1.30;;
2930;SDS011;1475;51.454;7.150;2022-08-01T13:38:21;2.60;;;1.35;;
2930;SDS011;1475;51.454;7.150;2022-08-01T13:41:10;2.40;;;1.30;;
2930;SDS011;1475;51.454;7.150;2022-08-01T13:43:37;2.50;;;1.40;;
2930;SDS011;1475;51.454;7.150;2022-08-01T13:46:05;2.83;;;1.50;;
2930;SDS011;1475;51.454;7.150;2022-08-01T13:48:32;2.30;;;1.30;;
2930;SDS011;1475;51.454;7.150;2022-08-01T13:50:59;4.10;;;1.30;;
2930;SDS011;1475;51.454;7.150;2022-08-01T13:53:28;2.50;;;1.20;;
2930;SDS011;1475;51.454;7.150;2022-08-01T13:55:55;2.20;;;1.40;;
2930;SDS011;1475;51.454;7.150;2022-08-01T13:58:24;2.80;;;1.73;;
2930;SDS011;1475;51.454;7.150;2022-08-01T14:00:54;2.53;;;1.30;;
2930;SDS011;1475;51.454;7.150;2022-08-01T14:03:23;2.53;;;1.40;;
2930;SDS011;1475;51.454;7.150;2022-08-01T14:05:50;3.00;;;1.40;;
2930;SDS011;1475;51.454;7.150;2022-08-01T14:08:17;2.20;;;1.20;;
2930;SDS011;1475;51.454;7.150;2022-08-01T14:10:44;2.80;;;1.60;;
2930;SDS011;1475;51.454;7.150;2022-08-01T14:13:11;2.20;;;1.10;;
2930;SDS011;1475;51.454;7.150;2022-08-01T14:15:40;3.40;;;1.30;;
2930;SDS011;1475;51.454;7.150;2022-08-01T14:18:07;2.60;;;1.30;;
2930;SDS011;1475;51.454;7.150;2022-08-01T14:20:34;2.40;;;1.60;;
2930;SDS011;1475;51.454;7.150;2022-08-01T14:23:01;3.80;;;1.70;;
2930;SDS011;1475;51.454;7.150;2022-08-01T14:25:28;2.30;;;1.50;;
2930;SDS011;1475;51.454;7.150;2022-08-01T14:27:55;2.03;;;1.27;;
2930;SDS011;1475;51.454;7.150;2022-08-01T14:30:22;2.30;;;1.40;;
2930;SDS011;1475;51.454;7.150;2022-08-01T14:32:52;3.13;;;1.30;;
2930;SDS011;1475;51.454;7.150;2022-08-01T14:35:19;3.67;;;1.60;;
2930;SDS011;1475;51.454;7.150;2022-08-01T14:37:46;2.97;;;1.70;;
2930;SDS011;1475;51.454;7.150;2022-08-01T14:40:13;2.30;;;1.35;;
2930;SDS011;1475;51.454;7.150;2022-08-01T14:42:40;4.13;;;1.60;;
2930;SDS011;1475;51.454;7.150;2022-08-01T14:45:09;4.10;;;1.52;;
2930;SDS011;1475;51.454;7.150;2022-08-01T14:47:37;3.00;;;1.50;;
2930;SDS011;1475;51.454;7.150;2022-08-01T14:50:07;3.22;;;1.60;;
2930;SDS011;1475;51.454;7.150;2022-08-01T14:52:36;2.88;;;1.40;;
2930;SDS011;1475;51.454;7.150;2022-08-01T14:55:06;4.68;;;1.80;;
2930;SDS011;1475;51.454;7.150;2022-08-01T14:57:35;2.60;;;1.33;;
2930;SDS011;1475;51.454;7.150;2022-08-01T15:00:03;2.70;;;1.60;;
2930;SDS011;1475;51.454;7.150;2022-08-01T15:02:32;3.60;;;1.90;;
2930;SDS011;1475;51.454;7.150;2022-08-01T15:04:59;3.33;;;1.77;;
2930;SDS011;1475;51.454;7.150;2022-08-01T15:07:27;3.30;;;2.20;;
2930;SDS011;1475;51.454;7.150;2022-08-01T15:09:54;2.95;;;1.77;;
2930;SDS011;1475;51.454;7.150;2022-08-01T15:12:21;3.13;;;1.60;;
2930;SDS011;1475;51.454;7.150;2022-08-01T15:14:48;2.63;;;1.90;;
2930;SDS011;1475;51.454;7.150;2022-08-01T15:17:15;3.40;;;1.80;;
2930;SDS011;1475;51.454;7.150;2022-08-01T15:19:42;2.70;;;1.70;;
2930;SDS011;1475;51.454;7.150;2022-08-01T15:22:09;2.70;;;1.60;;
2930;SDS011;1475;51.454;7.150;2022-08-01T15:24:37;3.80;;;1.65;;
2930;SDS011;1475;51.454;7.150;2022-08-01T15:27:04;5.28;;;2.10;;
2930;SDS011;1475;51.454;7.150;2022-08-01T15:29:31;3.42;;;2.10;;
2930;SDS011;1475;51.454;7.150;2022-08-01T15:31:59;3.83;;;1.98;;
2930;SDS011;1475;51.454;7.150;2022-08-01T15:34:26;3.00;;;1.90;;
2930;SDS011;1475;51.454;7.150;2022-08-01T15:36:52;3.63;;;2.30;;
2930;SDS011;1475;51.454;7.150;2022-08-01T15:39:19;3.60;;;2.00;;
2930;SDS011;1475;51.454;7.150;2022-08-01T15:41:48;3.10;;;2.20;;
2930;SDS011;1475;51.454;7.150;2022-08-01T15:44:15;4.90;;;2.10;;
2930;SDS011;1475;51.454;7.150;2022-08-01T15:46:44;3.30;;;1.98;;
2930;SDS011;1475;51.454;7.150;2022-08-01T15:49:12;4.60;;;1.92;;
2930;SDS011;1475;51.454;7.150;2022-08-01T15:51:39;3.28;;;1.90;;
2930;SDS011;1475;51.454;7.150;2022-08-01T15:54:06;4.00;;;2.20;;
2930;SDS011;1475;51.454;7.150;2022-08-01T15:56:34;3.00;;;2.08;;
2930;SDS011;1475;51.454;7.150;2022-08-01T15:59:03;3.80;;;2.00;;
2930;SDS011;1475;51.454;7.150;2022-08-01T16:01:30;3.30;;;2.05;;
2930;SDS011;1475;51.454;7.150;2022-08-01T16:03:57;3.25;;;2.33;;
2930;SDS011;1475;51.454;7.150;2022-08-01T16:06:24;4.05;;;2.70;;